createdAt,value
2022-11-23T00:01:14.769Z,4.78
2022-11-23T00:03:43.120Z,4.75
2022-11-23T00:06:11.454Z,4.47
2022-11-23T00:08:39.846Z,4.53
2022-11-23T00:11:08.232Z,4.82
2022-11-23T00:13:36.971Z,5.13
2022-11-23T00:16:07.154Z,5.13
2022-11-23T00:18:36.939Z,4.80
2022-11-23T00:21:09.600Z,5.32
2022-11-23T00:23:38.023Z,5.47
2022-11-23T00:26:07.507Z,4.65
2022-11-23T00:28:40.701Z,5.60
2022-11-23T00:31:11.442Z,5.85
2022-11-23T00:33:41.548Z,4.65
2022-11-23T00:36:13.418Z,3.60
2022-11-23T00:38:42.345Z,5.20
2022-11-23T00:41:12.549Z,5.15
2022-11-23T00:43:42.487Z,4.70
2022-11-23T00:46:15.460Z,5.15
2022-11-23T00:48:45.761Z,5.20
2022-11-23T00:51:16.624Z,4.60
2022-11-23T00:53:45.574Z,4.95
2022-11-23T00:56:14.448Z,4.93
2022-11-23T00:58:42.857Z,4.90
2022-11-23T01:01:15.941Z,4.78
2022-11-23T01:03:47.890Z,4.50
2022-11-23T01:06:17.917Z,4.38
2022-11-23T01:08:50.641Z,5.10
2022-11-23T01:11:19.224Z,5.20
2022-11-23T01:13:47.858Z,5.00
2022-11-23T01:16:23.575Z,4.57
2022-11-23T01:18:55.438Z,5.50
2022-11-23T01:21:25.647Z,5.28
2022-11-23T01:23:54.153Z,5.50
2022-11-23T01:26:22.805Z,5.20
2022-11-23T01:28:51.580Z,4.28
2022-11-23T01:31:21.484Z,5.13
2022-11-23T01:33:55.401Z,4.95
2022-11-23T01:36:24.722Z,5.40
2022-11-23T01:38:53.077Z,5.43
2022-11-23T01:41:27.193Z,4.70
2022-11-23T01:43:55.917Z,4.68
2022-11-23T01:46:24.300Z,4.82
2022-11-23T01:48:56.835Z,4.88
2022-11-23T01:51:28.753Z,5.05
2022-11-23T01:54:00.762Z,3.95
2022-11-23T01:56:32.209Z,4.25
2022-11-23T01:59:02.358Z,4.00
2022-11-23T02:01:30.797Z,4.38
2022-11-23T02:04:02.546Z,4.18
2022-11-23T02:06:31.663Z,4.18
2022-11-23T02:09:03.532Z,4.90
2022-11-23T02:11:31.919Z,2.72
2022-11-23T02:14:00.401Z,4.05
2022-11-23T02:16:31.673Z,3.55
2022-11-23T02:19:01.588Z,2.53
2022-11-23T02:21:29.998Z,3.05
2022-11-23T02:24:03.129Z,4.00
2022-11-23T02:26:34.705Z,4.82
2022-11-23T02:29:07.665Z,4.13
2022-11-23T02:31:36.198Z,3.97
2022-11-23T02:34:04.628Z,3.30
2022-11-23T02:36:39.218Z,3.95
2022-11-23T02:39:11.262Z,3.70
2022-11-23T02:41:44.190Z,4.38
2022-11-23T02:44:23.530Z,4.38
2022-11-23T02:46:52.290Z,3.85
2022-11-23T02:49:20.745Z,3.58
2022-11-23T02:51:51.240Z,3.53
2022-11-23T02:54:19.621Z,4.25
2022-11-23T02:56:49.315Z,3.78
2022-11-23T02:59:19.199Z,4.30
2022-11-23T03:01:47.809Z,3.70
2022-11-23T03:04:16.275Z,4.18
2022-11-23T03:06:46.227Z,4.40
2022-11-23T03:09:14.939Z,4.22
2022-11-23T03:11:43.500Z,3.28
2022-11-23T03:14:13.492Z,4.25
2022-11-23T03:16:50.977Z,4.57
2022-11-23T03:19:20.515Z,3.97
2022-11-23T03:21:50.149Z,4.18
2022-11-23T03:24:18.543Z,4.07
2022-11-23T03:26:48.383Z,3.78
2022-11-23T03:29:26.357Z,3.53
2022-11-23T03:31:56.084Z,3.67
2022-11-23T03:34:24.789Z,3.65
2022-11-23T03:36:53.314Z,3.47
2022-11-23T03:39:21.992Z,3.00
2022-11-23T03:42:08.569Z,3.90
2022-11-23T03:44:38.852Z,3.95
2022-11-23T03:47:07.218Z,3.30
2022-11-23T03:49:37.189Z,3.75
2022-11-23T03:52:06.167Z,3.40
2022-11-23T03:54:34.469Z,3.17
2022-11-23T03:57:02.839Z,3.28
2022-11-23T03:59:31.477Z,3.08
2022-11-23T04:02:01.382Z,3.10
2022-11-23T04:04:34.634Z,2.25
2022-11-23T04:07:10.374Z,2.63
2022-11-23T04:09:52.184Z,1.95
2022-11-23T04:12:52.510Z,2.28
2022-11-23T04:15:20.815Z,2.63
2022-11-23T04:17:50.529Z,2.40
2022-11-23T04:20:19.054Z,2.58
2022-11-23T04:22:47.389Z,1.55
2022-11-23T04:25:16.274Z,2.17
2022-11-23T04:27:44.592Z,2.90
2022-11-23T04:30:14.201Z,1.48
2022-11-23T04:32:42.565Z,2.80
2022-11-23T04:35:12.889Z,2.58
2022-11-23T04:37:43.360Z,2.40
2022-11-23T04:40:13.460Z,2.05
2022-11-23T04:42:45.385Z,2.83
2022-11-23T04:45:13.867Z,2.40
2022-11-23T04:47:42.909Z,2.53
2022-11-23T04:50:17.081Z,2.83
2022-11-23T04:52:50.667Z,3.35
2022-11-23T04:55:23.502Z,2.03
2022-11-23T04:57:58.419Z,2.85
2022-11-23T05:00:30.608Z,3.25
2022-11-23T05:03:01.408Z,2.90
2022-11-23T05:05:34.443Z,2.88
2022-11-23T05:08:04.302Z,3.28
2022-11-23T05:10:53.801Z,3.45
2022-11-23T05:13:22.089Z,3.72
2022-11-23T05:15:51.634Z,4.05
2022-11-23T05:18:26.130Z,3.90
2022-11-23T05:20:56.454Z,4.30
2022-11-23T05:23:24.741Z,3.35
2022-11-23T05:25:55.033Z,4.65
2022-11-23T05:28:39.791Z,3.10
2022-11-23T05:31:10.595Z,3.95
2022-11-23T05:33:38.951Z,2.80
2022-11-23T05:36:14.010Z,4.32
2022-11-23T05:38:43.574Z,4.30
2022-11-23T05:41:20.972Z,4.00
2022-11-23T05:43:52.297Z,2.40
2022-11-23T05:46:25.265Z,3.17
2022-11-23T05:48:53.692Z,2.60
2022-11-23T05:51:23.460Z,2.63
2022-11-23T05:53:52.405Z,2.38
2022-11-23T05:56:40.319Z,3.05
2022-11-23T05:59:21.175Z,2.78
2022-11-23T06:01:54.413Z,3.80
2022-11-23T06:04:31.085Z,3.10
2022-11-23T06:07:02.084Z,2.97
2022-11-23T06:09:44.809Z,2.95
2022-11-23T06:12:13.565Z,2.83
2022-11-23T06:14:41.876Z,2.25
2022-11-23T06:17:10.264Z,2.38
2022-11-23T06:19:44.013Z,2.92
2022-11-23T06:22:15.623Z,2.05
2022-11-23T06:24:55.960Z,3.13
2022-11-23T06:27:41.529Z,2.53
2022-11-23T06:30:17.685Z,3.33
2022-11-23T06:32:46.430Z,2.65
2022-11-23T06:35:15.258Z,2.97
2022-11-23T06:37:46.772Z,2.97
2022-11-23T06:40:15.107Z,2.20
2022-11-23T06:42:44.495Z,1.67
2022-11-23T06:45:19.489Z,2.70
2022-11-23T06:47:50.062Z,1.90
2022-11-23T06:50:18.947Z,2.53
2022-11-23T06:52:50.229Z,3.13
2022-11-23T06:55:19.711Z,2.22
2022-11-23T06:57:48.394Z,2.55
2022-11-23T07:00:17.743Z,2.25
2022-11-23T07:02:50.438Z,1.80
2022-11-23T07:05:19.214Z,2.65
2022-11-23T07:07:49.755Z,2.40
2022-11-23T07:10:25.871Z,3.38
2022-11-23T07:13:05.820Z,1.98
2022-11-23T07:15:35.131Z,3.80
2022-11-23T07:18:03.641Z,3.10
2022-11-23T07:20:33.043Z,3.55
2022-11-23T07:23:03.385Z,3.60
2022-11-23T07:25:32.609Z,2.13
2022-11-23T07:28:02.741Z,4.10
2022-11-23T07:30:32.424Z,3.53
2022-11-23T07:33:02.687Z,3.83
2022-11-23T07:35:32.885Z,4.32
2022-11-23T07:38:02.759Z,4.15
2022-11-23T07:40:31.107Z,4.75
2022-11-23T07:43:02.858Z,4.93
2022-11-23T07:45:31.754Z,3.97
2022-11-23T07:48:01.953Z,3.80
2022-11-23T07:50:30.739Z,4.30
2022-11-23T07:52:59.033Z,3.58
2022-11-23T07:55:28.738Z,4.07
2022-11-23T07:57:57.031Z,5.05
2022-11-23T08:00:26.470Z,3.78
2022-11-23T08:03:25.561Z,3.22
2022-11-23T08:05:43.216Z,2.92
2022-11-23T08:08:11.984Z,3.85
2022-11-23T08:10:46.066Z,4.03
2022-11-23T08:13:15.666Z,4.40
2022-11-23T08:15:45.653Z,2.20
2022-11-23T08:18:17.146Z,3.60
2022-11-23T08:20:45.457Z,4.25
2022-11-23T08:23:13.753Z,4.93
2022-11-23T08:25:43.501Z,3.45
2022-11-23T08:28:12.070Z,2.60
2022-11-23T08:30:40.598Z,3.22
2022-11-23T08:33:09.826Z,3.22
2022-11-23T08:35:39.382Z,3.10
2022-11-23T08:38:10.313Z,5.05
2022-11-23T08:40:39.167Z,4.80
2022-11-23T08:43:11.397Z,3.40
2022-11-23T08:45:39.709Z,5.03
2022-11-23T08:48:08.911Z,3.05
2022-11-23T08:50:37.535Z,5.60
2022-11-23T08:53:06.020Z,4.88
2022-11-23T08:55:34.339Z,4.25
2022-11-23T08:58:02.637Z,2.80
2022-11-23T09:00:32.606Z,4.72
2022-11-23T09:03:01.059Z,4.13
2022-11-23T09:05:30.934Z,4.03
2022-11-23T09:08:01.409Z,4.07
2022-11-23T09:10:30.083Z,4.38
2022-11-23T09:12:58.985Z,4.30
2022-11-23T09:15:27.318Z,4.10
2022-11-23T09:17:57.848Z,3.10
2022-11-23T09:20:26.275Z,3.53
2022-11-23T09:22:56.074Z,4.03
2022-11-23T09:25:24.563Z,4.63
2022-11-23T09:27:58.625Z,4.38
2022-11-23T09:30:27.355Z,2.65
2022-11-23T09:32:58.411Z,2.05
2022-11-23T09:35:26.918Z,2.85
2022-11-23T09:37:58.597Z,4.00
2022-11-23T09:40:30.325Z,3.45
2022-11-23T09:43:26.445Z,3.72
2022-11-23T09:45:55.943Z,2.83
2022-11-23T09:48:43.655Z,3.20
2022-11-23T09:51:17.333Z,4.13
2022-11-23T09:53:48.537Z,3.72
2022-11-23T09:56:20.086Z,3.30
2022-11-23T09:58:48.714Z,3.28
2022-11-23T10:01:17.525Z,3.95
2022-11-23T10:03:49.343Z,4.13
2022-11-23T10:06:20.674Z,3.67
2022-11-23T10:08:59.146Z,3.28
2022-11-23T10:12:06.022Z,2.92
2022-11-23T10:14:47.084Z,4.53
2022-11-23T10:17:22.169Z,3.28
2022-11-23T10:20:02.518Z,4.25
2022-11-23T10:22:37.179Z,4.57
2022-11-23T10:25:15.826Z,3.92
2022-11-23T10:27:45.998Z,4.85
2022-11-23T10:30:15.899Z,4.45
2022-11-23T10:32:48.512Z,5.18
2022-11-23T10:35:20.265Z,3.80
2022-11-23T10:37:50.467Z,5.90
2022-11-23T10:40:24.702Z,4.95
2022-11-23T10:42:55.878Z,3.38
2022-11-23T10:45:26.377Z,5.05
2022-11-23T10:47:56.189Z,4.97
2022-11-23T10:50:30.080Z,6.47
2022-11-23T10:53:00.940Z,5.90
2022-11-23T10:55:31.143Z,6.80
2022-11-23T10:57:59.744Z,7.03
2022-11-23T11:00:31.280Z,5.93
2022-11-23T11:03:00.633Z,5.35
2022-11-23T11:06:07.586Z,4.30
2022-11-23T11:08:22.676Z,4.25
2022-11-23T11:10:52.171Z,5.65
2022-11-23T11:13:31.073Z,3.67
2022-11-23T11:16:00.965Z,3.92
2022-11-23T11:18:31.841Z,2.45
2022-11-23T11:21:04.506Z,3.50
2022-11-23T11:23:33.243Z,3.50
2022-11-23T11:26:07.455Z,3.42
2022-11-23T11:28:38.230Z,3.97
2022-11-23T11:31:20.668Z,1.90
2022-11-23T11:33:53.807Z,4.18
2022-11-23T11:36:23.775Z,4.03
2022-11-23T11:39:17.077Z,4.70
2022-11-23T11:41:44.470Z,4.10
2022-11-23T11:44:18.605Z,4.13
2022-11-23T11:46:50.508Z,4.95
2022-11-23T11:49:23.019Z,5.57
2022-11-23T11:51:55.989Z,5.00
2022-11-23T11:54:29.521Z,4.10
2022-11-23T11:57:02.155Z,3.78
2022-11-23T11:59:32.250Z,4.63
2022-11-23T12:02:08.834Z,4.53
2022-11-23T12:04:41.638Z,2.40
2022-11-23T12:07:15.405Z,2.45
2022-11-23T12:09:46.310Z,3.20
2022-11-23T12:12:17.459Z,3.85
2022-11-23T12:14:47.067Z,4.13
2022-11-23T12:17:33.839Z,5.25
2022-11-23T12:20:09.062Z,2.80
2022-11-23T12:22:46.157Z,4.10
2022-11-23T12:25:22.415Z,4.60
2022-11-23T12:28:00.661Z,3.15
2022-11-23T12:30:36.239Z,2.95
2022-11-23T12:33:22.352Z,4.53
2022-11-23T12:36:01.272Z,5.20
2022-11-23T12:38:37.265Z,3.35
2022-11-23T12:41:16.571Z,3.33
2022-11-23T12:43:54.078Z,4.88
2022-11-23T12:46:27.555Z,4.65
2022-11-23T12:49:07.737Z,4.45
2022-11-23T12:51:40.733Z,4.78
2022-11-23T12:54:22.519Z,5.07
2022-11-23T12:57:08.081Z,3.83
2022-11-23T12:59:43.649Z,6.00
2022-11-23T13:02:18.606Z,5.53
2022-11-23T13:05:08.363Z,3.17
2022-11-23T13:07:50.352Z,5.70
2022-11-23T13:10:44.457Z,3.67
2022-11-23T13:13:28.078Z,3.05
2022-11-23T13:16:15.451Z,5.95
2022-11-23T13:18:58.933Z,5.00
2022-11-23T13:21:36.286Z,5.30
2022-11-23T13:24:05.020Z,3.08
2022-11-23T13:26:34.703Z,5.72
2022-11-23T13:29:37.866Z,3.45
2022-11-23T13:32:36.305Z,2.30
2022-11-23T13:35:04.959Z,2.63
2022-11-23T13:38:08.101Z,2.50
2022-11-23T13:40:37.754Z,1.70
2022-11-23T13:43:17.431Z,3.13
2022-11-23T13:45:46.295Z,2.63
2022-11-23T13:48:48.924Z,3.40
2022-11-23T13:51:07.243Z,1.80
2022-11-23T13:53:36.537Z,2.60
2022-11-23T13:56:36.995Z,2.83
2022-11-23T13:59:32.413Z,2.33
2022-11-23T14:02:30.514Z,2.22
2022-11-23T14:05:35.710Z,3.30
2022-11-23T14:08:05.276Z,2.40
2022-11-23T14:10:33.885Z,4.10
2022-11-23T14:13:05.722Z,3.78
2022-11-23T14:15:37.098Z,3.55
2022-11-23T14:18:17.754Z,2.22
2022-11-23T14:21:03.179Z,2.65
2022-11-23T14:24:11.207Z,3.33
2022-11-23T14:26:49.410Z,2.55
2022-11-23T14:29:30.475Z,2.78
2022-11-23T14:32:13.880Z,3.67
2022-11-23T14:34:51.257Z,3.08
2022-11-23T14:37:27.190Z,3.67
2022-11-23T14:40:19.169Z,4.10
2022-11-23T14:42:53.545Z,4.82
2022-11-23T14:45:23.113Z,4.75
2022-11-23T14:47:52.978Z,4.13
2022-11-23T14:50:26.135Z,4.88
2022-11-23T14:52:55.375Z,4.65
2022-11-23T14:55:25.277Z,4.63
2022-11-23T14:57:56.875Z,5.03
2022-11-23T15:00:31.965Z,3.40
2022-11-23T15:03:42.119Z,5.78
2022-11-23T15:06:02.956Z,5.15
2022-11-23T15:08:33.329Z,3.10
2022-11-23T15:11:04.505Z,3.33
2022-11-23T15:13:46.986Z,4.55
2022-11-23T15:16:17.146Z,5.38
2022-11-23T15:18:47.566Z,5.80
2022-11-23T15:21:26.634Z,7.13
2022-11-23T15:23:57.556Z,6.60
2022-11-23T15:26:47.587Z,7.13
2022-11-23T15:29:34.488Z,6.57
2022-11-23T15:34:55.359Z,6.65
2022-11-23T15:37:24.356Z,7.10
2022-11-23T15:39:53.918Z,6.63
2022-11-23T15:42:33.917Z,5.80
2022-11-23T15:45:02.306Z,3.65
2022-11-23T15:47:32.175Z,2.83
2022-11-23T15:50:04.123Z,3.42
2022-11-23T15:52:36.008Z,5.00
2022-11-23T15:55:09.727Z,2.90
2022-11-23T15:57:39.658Z,5.05
2022-11-23T16:00:10.275Z,4.90
2022-11-23T16:02:41.731Z,4.15
2022-11-23T16:05:15.922Z,3.50
2022-11-23T16:07:54.910Z,2.90
2022-11-23T16:10:25.997Z,3.65
2022-11-23T16:12:55.490Z,3.00
2022-11-23T16:15:44.187Z,4.00
2022-11-23T16:18:24.900Z,4.97
2022-11-23T16:20:56.482Z,4.28
2022-11-23T16:23:26.972Z,5.07
2022-11-23T16:25:56.961Z,7.53
2022-11-23T16:28:29.744Z,3.67
2022-11-23T16:30:58.686Z,5.80
2022-11-23T16:33:27.169Z,4.40
2022-11-23T16:35:56.926Z,7.68
2022-11-23T16:38:28.512Z,6.00
2022-11-23T16:40:57.172Z,8.35
2022-11-23T16:43:25.594Z,6.35
2022-11-23T16:45:53.993Z,7.05
2022-11-23T16:48:46.298Z,11.88
2022-11-23T16:51:16.184Z,4.47
2022-11-23T16:56:34.177Z,7.63
2022-11-23T16:59:02.576Z,5.22
2022-11-23T17:01:32.689Z,7.60
2022-11-23T17:04:01.218Z,5.15
2022-11-23T17:06:31.092Z,6.18
2022-11-23T17:09:06.412Z,5.63
2022-11-23T17:11:39.555Z,8.60
2022-11-23T17:14:08.180Z,10.98
2022-11-23T17:16:36.654Z,9.18
2022-11-23T17:19:05.164Z,9.52
2022-11-23T17:21:34.828Z,8.85
2022-11-23T17:24:04.048Z,7.80
2022-11-23T17:26:34.964Z,8.98
2022-11-23T17:29:04.910Z,7.55
2022-11-23T17:31:33.349Z,9.50
2022-11-23T17:34:02.405Z,9.65
2022-11-23T17:36:31.476Z,7.63
2022-11-23T17:39:01.210Z,9.38
2022-11-23T17:41:29.604Z,10.55
2022-11-23T17:43:59.446Z,7.57
2022-11-23T17:46:28.406Z,9.80
2022-11-23T17:48:58.363Z,9.20
2022-11-23T17:51:28.366Z,7.85
2022-11-23T17:53:57.007Z,8.57
2022-11-23T17:56:26.935Z,10.00
2022-11-23T17:58:55.291Z,7.72
2022-11-23T18:01:24.116Z,5.97
2022-11-23T18:03:52.601Z,5.45
2022-11-23T18:06:22.088Z,9.52
2022-11-23T18:08:51.165Z,5.57
2022-11-23T18:11:19.946Z,7.43
2022-11-23T18:13:50.683Z,6.72
2022-11-23T18:16:20.535Z,9.45
2022-11-23T18:18:49.203Z,7.15
2022-11-23T18:21:17.820Z,7.78
2022-11-23T18:23:46.166Z,7.78
2022-11-23T18:26:17.546Z,5.72
2022-11-23T18:28:45.934Z,6.22
2022-11-23T18:31:17.267Z,5.03
2022-11-23T18:33:46.009Z,4.18
2022-11-23T18:36:14.838Z,7.15
2022-11-23T18:38:44.991Z,7.15
2022-11-23T18:41:13.772Z,7.03
2022-11-23T18:43:42.115Z,6.57
2022-11-23T18:46:11.558Z,7.32
2022-11-23T18:48:41.416Z,8.13
2022-11-23T18:51:11.916Z,5.45
2022-11-23T18:53:41.256Z,8.63
2022-11-23T18:56:10.620Z,7.90
2022-11-23T18:58:40.774Z,7.25
2022-11-23T19:01:12.672Z,7.65
2022-11-23T19:03:43.449Z,5.95
2022-11-23T19:06:17.225Z,6.10
2022-11-23T19:08:46.897Z,9.15
2022-11-23T19:11:18.044Z,11.45
2022-11-23T19:13:48.214Z,6.97
2022-11-23T19:16:18.097Z,9.63
2022-11-23T19:18:47.912Z,8.15
2022-11-23T19:21:17.568Z,8.25
2022-11-23T19:23:49.194Z,7.40
2022-11-23T19:26:17.596Z,5.65
2022-11-23T19:28:46.095Z,8.35
2022-11-23T19:31:15.856Z,8.15
2022-11-23T19:33:44.728Z,6.32
2022-11-23T19:36:15.930Z,7.75
2022-11-23T19:38:44.596Z,9.10
2022-11-23T19:41:13.327Z,8.77
2022-11-23T19:43:42.921Z,6.85
2022-11-23T19:46:13.982Z,5.85
2022-11-23T19:48:42.454Z,7.90
2022-11-23T19:51:14.773Z,4.72
2022-11-23T19:53:43.964Z,5.32
2022-11-23T19:56:13.731Z,7.05
2022-11-23T19:58:42.894Z,7.18
2022-11-23T20:01:12.880Z,6.75
2022-11-23T20:03:42.671Z,9.98
2022-11-23T20:06:15.975Z,8.18
2022-11-23T20:08:45.123Z,10.05
2022-11-23T20:11:15.369Z,9.93
2022-11-23T20:13:44.682Z,8.52
2022-11-23T20:16:14.747Z,6.13
2022-11-23T20:18:43.822Z,10.80
2022-11-23T20:21:13.124Z,10.27
2022-11-23T20:23:43.920Z,6.53
2022-11-23T20:26:14.863Z,9.27
2022-11-23T20:28:43.412Z,8.27
2022-11-23T20:31:20.009Z,8.02
2022-11-23T20:33:50.519Z,10.43
2022-11-23T20:36:20.537Z,10.82
2022-11-23T20:38:50.777Z,9.80
2022-11-23T20:41:21.516Z,7.07
2022-11-23T20:43:50.833Z,5.82
2022-11-23T20:46:38.174Z,8.85
2022-11-23T20:49:07.713Z,6.15
2022-11-23T20:51:36.424Z,6.60
2022-11-23T20:54:06.359Z,6.85
2022-11-23T20:56:34.704Z,11.55
2022-11-23T20:59:04.836Z,9.80
2022-11-23T21:01:33.445Z,7.47
2022-11-23T21:04:01.789Z,11.90
2022-11-23T21:06:34.437Z,9.50
2022-11-23T21:09:07.048Z,11.18
2022-11-23T21:11:52.733Z,7.82
2022-11-23T21:14:23.302Z,8.63
2022-11-23T21:16:55.356Z,8.07
2022-11-23T21:19:25.060Z,10.23
2022-11-23T21:21:53.796Z,8.10
2022-11-23T21:24:23.720Z,6.00
2022-11-23T21:26:52.250Z,5.72
2022-11-23T21:29:20.718Z,5.35
2022-11-23T21:31:49.957Z,4.72
2022-11-23T21:34:20.244Z,7.30
2022-11-23T21:36:49.327Z,7.65
2022-11-23T21:39:18.331Z,5.78
2022-11-23T21:41:50.830Z,5.90
2022-11-23T21:44:19.336Z,5.47
2022-11-23T21:46:47.775Z,4.45
2022-11-23T21:49:16.193Z,4.78
2022-11-23T21:51:45.748Z,5.97
2022-11-23T21:54:16.002Z,6.13
2022-11-23T21:56:45.404Z,4.43
2022-11-23T21:59:15.265Z,5.30
2022-11-23T22:01:43.874Z,4.57
2022-11-23T22:04:13.417Z,6.88
2022-11-23T22:06:44.525Z,7.07
2022-11-23T22:09:13.416Z,4.20
2022-11-23T22:11:43.260Z,5.03
2022-11-23T22:14:12.974Z,7.05
2022-11-23T22:16:44.190Z,4.78
2022-11-23T22:19:13.724Z,7.18
2022-11-23T22:21:43.042Z,5.60
2022-11-23T22:24:13.571Z,5.03
2022-11-23T22:26:42.017Z,4.32
2022-11-23T22:29:10.979Z,4.82
2022-11-23T22:31:39.906Z,6.18
2022-11-23T22:34:12.457Z,5.45
2022-11-23T22:36:41.323Z,5.28
2022-11-23T22:39:10.067Z,5.28
2022-11-23T22:41:39.021Z,7.80
2022-11-23T22:44:09.041Z,8.13
2022-11-23T22:46:37.869Z,7.78
2022-11-23T22:49:06.540Z,6.70
2022-11-23T22:51:36.329Z,7.47
2022-11-23T22:54:05.219Z,7.63
2022-11-23T22:56:33.599Z,6.45
2022-11-23T22:59:02.032Z,7.47
2022-11-23T23:01:31.872Z,8.25
2022-11-23T23:04:02.520Z,9.18
2022-11-23T23:06:33.785Z,9.23
2022-11-23T23:09:05.120Z,9.07
2022-11-23T23:11:34.564Z,10.35
2022-11-23T23:14:03.128Z,4.97
2022-11-23T23:16:31.624Z,6.38
2022-11-23T23:19:00.626Z,5.90
2022-11-23T23:21:30.323Z,6.10
2022-11-23T23:24:00.449Z,6.45
2022-11-23T23:26:30.563Z,8.20
2022-11-23T23:29:00.483Z,8.30
2022-11-23T23:31:30.056Z,8.63
2022-11-23T23:33:59.772Z,6.82
2022-11-23T23:36:28.228Z,8.55
2022-11-23T23:38:57.753Z,6.18
2022-11-23T23:41:26.146Z,6.32
2022-11-23T23:43:55.974Z,7.03
2022-11-23T23:46:24.317Z,5.50
2022-11-23T23:48:52.933Z,6.65
2022-11-23T23:51:22.913Z,6.35
2022-11-23T23:53:52.143Z,7.03
2022-11-23T23:56:22.165Z,6.80
2022-11-23T23:58:50.712Z,7.78
